East Canyon Creek Flow Near ECWRF

♦ The data used to create the chart above are available in the table below.
♦ You may freely copy and paste the table below for further analysis.
♦ If higher frequency or longer history data are required, click here for the USGS NWISWeb page. The East Canyon Creek gage below the East Canyon Water Reclamation Facility is 10133800.
♦ For ECWRF data, contact Michael Boyle, Operations Manager, at 435.214.5229.
♦ The Utah Division of Wildlife Resources has advised that a minimum flow of 3.5 cfs, preferably 6.0 cfs, is required to support East Canyon Creek's cold-water fishery.

Disclaimer
The Snyderville Basin Water Reclamation District provides no warranty, expressed or implied, as to the relevance, accuracy, reliability or completeness of the data. The link to the USGS NWISWeb page is for convenience only. The Snyderville Basin Water Reclamation District does not have any control over the collection or maintenance of the stream flow data at the East Canyon Creek gage below ECWRF and cannot guarantee the relevance, timeliness, or accuracy of that data.

Provisional Flow Data (cfs)
Date Downstream Flow ECWRF Flow Upstream Flow % ECWRF Flow
11/24/2021 15.3 3.52 11.78 23.01
11/25/2021 11.7 3.69 8.01 31.54
11/26/2021 13.1 3.55 9.55 27.10
11/27/2021 14.3 3.57 10.73 24.97
11/28/2021 15.1 3.45 11.65 22.85
11/29/2021 15 3.2 11.8 21.33
11/30/2021 15 3.1 11.9 20.67
12/1/2021 13.8 3.12 10.68 22.61
12/2/2021 15.7 3.13 12.57 19.94
12/3/2021 16.4 3.17 13.23 19.33
12/4/2021 16.2 3.38 12.82 20.86
12/5/2021 16.3 3.45 12.85 21.17
12/6/2021 14.3 3.22 11.08 22.52
12/7/2021 12.4 3.15 9.25 25.40
12/8/2021 13.4 3.22 10.18 24.03
12/9/2021 16.8 3.4 13.4 20.24
12/10/2021 13.6 3.38 10.22 24.85
12/11/2021 11.8 3.5 8.3 29.66
12/12/2021 12.2 3.47 8.73 28.44
12/13/2021 12.6 3.37 9.23 26.75
12/14/2021 11.9 3.36 8.54 28.24
12/15/2021 14 3.5 10.5 25.00
12/16/2021 12.6 3.45 9.15 27.38
12/17/2021 12.9 3.61 9.29 27.98
12/18/2021 11.9 4.01 7.89 33.70
12/19/2021 11.6 4.34 7.26 37.41
12/20/2021 11.4 4.31 7.09 37.81
12/21/2021 11.8 4.42 7.38 37.46
12/22/2021 11.6 4.44 7.16 38.28
12/23/2021 13.4 4.53 8.87 33.81
12/24/2021 19.5 4.76 14.74 24.41
12/25/2021 19.1 4.51 14.59 23.61
12/26/2021 15.3 4.76 10.54 31.11
12/27/2021 17 4.8 12.2 28.24
12/28/2021 16.5 4.86 11.64 29.45
12/29/2021 16.6 5.15 11.45 31.02
12/30/2021 16.8 5.93 10.87 35.30
12/31/2021 15.8 5.66 10.14 35.82
1/1/2022 15.1 5.58 9.52 36.95
1/2/2022 13 5.29 7.71 40.69
1/3/2022 12.3 5.11 7.19 41.54
1/4/2022 12.5 4.97 7.53 39.76
1/5/2022 15.1 5.22 9.88 34.57
1/6/2022 36.2 6.43 29.77 17.76
1/7/2022 31 5.84 25.16 18.84
1/8/2022 28 5.64 22.36 20.14
1/9/2022 20.2 5.39 14.81 26.68
1/10/2022 17 4.95 12.05 29.12
1/11/2022 16 4.69 11.31 29.31
1/12/2022 15.7 4.59 11.11 29.24
1/13/2022 15.9 4.7 11.2 29.56
1/14/2022 17.8 4.98 12.82 27.98
1/15/2022 17.3 5.12 12.18 29.60
1/16/2022 15.6 5.07 10.53 32.50
1/17/2022 15.2 4.93 10.27 32.43
1/18/2022 15.5 4.56 10.94 29.42
1/19/2022 16.4 4.34 12.06 26.46
1/20/2022 15.2 4.42 10.78 29.08
1/21/2022 16.7 4.61 12.09 27.60
1/22/2022 18.1 4.72 13.38 26.08
1/23/2022 16.6 4.77 11.83 28.73
1/24/2022 17.2 4.5 12.7 26.16